Time;durP1;ratioP1;P1;durP2;ratioP2;P2;SDS_P1;SDS_P2;PMS_P1;PMS_P2;Temp;Humidity;BMP_temperature;BMP_pressure;BME280_temperature;BME280_humidity;BME280_pressure;Samples;Min_cycle;Max_cycle;Signal;HPM_P1;HPM_P2
2022/10/14 00:02:05;;;;;;;10.70;6.03;;;;;;;10.86;nan;94138.44;4934253;29;20035;-69
2022/10/14 00:04:31;;;;;;;11.35;6.25;;;;;;;10.95;nan;94133.22;4934835;29;20051;-69
2022/10/14 00:06:58;;;;;;;11.55;5.93;;;;;;;11.00;nan;94138.25;4934336;29;20039;-71
2022/10/14 00:09:25;;;;;;;16.85;8.05;;;;;;;11.00;nan;94140.97;4934726;29;20073;-69
2022/10/14 00:11:52;;;;;;;17.90;8.20;;;;;;;11.06;nan;94133.06;4934740;29;20439;-71
2022/10/14 00:14:20;;;;;;;20.23;9.13;;;;;;;11.16;nan;94132.91;4934173;29;20052;-69
2022/10/14 00:16:51;;;;;;;13.55;7.18;;;;;;;11.17;nan;94134.47;4934573;29;20082;-69
2022/10/14 00:19:18;;;;;;;12.40;6.07;;;;;;;11.16;nan;94127.41;4933970;29;20047;-70
2022/10/14 00:21:44;;;;;;;12.45;5.90;;;;;;;11.07;nan;94129.91;4934753;29;20061;-69
2022/10/14 00:24:12;;;;;;;15.93;6.13;;;;;;;10.95;nan;94125.75;4933947;29;20062;-70
2022/10/14 00:26:39;;;;;;;15.55;6.97;;;;;;;10.90;nan;94130.94;4934526;29;20106;-70
2022/10/14 00:29:10;;;;;;;12.20;6.47;;;;;;;10.92;nan;94126.56;4933935;29;20063;-70
2022/10/14 00:31:38;;;;;;;11.85;6.57;;;;;;;10.91;nan;94127.00;4934171;29;20062;-69
2022/10/14 00:34:04;;;;;;;13.43;6.57;;;;;;;10.82;nan;94134.94;4933170;29;20043;-71
2022/10/14 00:36:31;;;;;;;12.27;6.47;;;;;;;10.85;nan;94134.16;4934200;29;20054;-69
2022/10/14 00:38:58;;;;;;;11.55;6.60;;;;;;;10.96;nan;94132.03;4933925;29;20065;-71
2022/10/14 00:41:29;;;;;;;14.70;6.47;;;;;;;10.88;nan;94122.31;4934296;29;20056;-70
2022/10/14 00:44:05;;;;;;;14.00;6.53;;;;;;;10.85;nan;94134.91;4933748;29;20515;-69
2022/10/14 00:46:47;;;;;;;11.25;6.25;;;;;;;10.74;nan;94123.28;4934416;29;20396;-69
2022/10/14 00:49:22;;;;;;;12.20;6.97;;;;;;;10.73;nan;94127.22;4933507;29;20058;-71
2022/10/14 00:51:59;;;;;;;13.07;6.93;;;;;;;10.63;nan;94134.41;4933795;29;20051;-69
2022/10/14 00:54:33;;;;;;;12.20;6.30;;;;;;;10.66;nan;94117.09;4933221;29;20828;-70
2022/10/14 00:57:01;;;;;;;12.02;5.60;;;;;;;10.68;nan;94120.22;4933514;29;20040;-69
2022/10/14 00:59:28;;;;;;;11.23;6.30;;;;;;;10.64;nan;94126.94;4933991;29;20052;-69
2022/10/14 01:01:55;;;;;;;13.10;6.50;;;;;;;10.66;nan;94128.06;4933068;29;20047;-68
2022/10/14 01:04:22;;;;;;;18.42;9.98;;;;;;;10.60;nan;94129.72;4934050;29;20047;-69
2022/10/14 01:07:13;;;;;;;14.35;8.00;;;;;;;10.75;nan;94122.09;4933617;29;20051;-71
2022/10/14 01:09:51;;;;;;;10.85;5.90;;;;;;;10.71;nan;94118.63;4932917;29;20871;-69
2022/10/14 01:12:40;;;;;;;11.38;5.97;;;;;;;10.45;nan;94117.38;4933120;29;20486;-69
2022/10/14 01:15:22;;;;;;;12.67;5.93;;;;;;;10.26;nan;94114.03;4933026;29;20070;-69
2022/10/14 01:18:18;;;;;;;14.15;6.88;;;;;;;10.36;nan;94117.84;4933343;29;20039;-69
2022/10/14 01:20:54;;;;;;;12.60;5.72;;;;;;;10.39;nan;94123.28;4932719;29;20218;-70
2022/10/14 01:23:43;;;;;;;13.77;5.88;;;;;;;10.40;nan;94118.59;4932412;29;20360;-70
2022/10/14 01:26:40;;;;;;;13.27;5.88;;;;;;;10.35;nan;94111.59;4932849;29;20051;-70
2022/10/14 01:29:20;;;;;;;11.53;5.97;;;;;;;10.36;nan;94115.91;4932791;29;20094;-69
2022/10/14 01:31:56;;;;;;;11.20;6.25;;;;;;;10.42;nan;94112.69;4933293;29;20056;-69
2022/10/14 01:34:34;;;;;;;11.60;6.28;;;;;;;10.54;nan;94110.22;4932471;29;20676;-71
2022/10/14 01:37:10;;;;;;;12.52;5.90;;;;;;;10.58;nan;94107.41;4932593;29;20036;-70
2022/10/14 01:39:43;;;;;;;10.27;5.20;;;;;;;10.59;nan;94106.22;4933407;29;20048;-70
2022/10/14 01:42:14;;;;;;;10.90;5.70;;;;;;;10.61;nan;94105.81;4932514;29;20059;-70
2022/10/14 01:44:46;;;;;;;12.93;6.22;;;;;;;10.56;nan;94105.09;4932684;29;20046;-70
2022/10/14 01:47:17;;;;;;;9.38;5.20;;;;;;;10.69;nan;94101.78;4932513;29;20039;-70
2022/10/14 01:50:15;;;;;;;8.70;5.22;;;;;;;10.66;nan;94105.34;4932820;29;20043;-69
2022/10/14 01:53:00;;;;;;;8.93;5.03;;;;;;;10.62;nan;94097.16;4914514;29;20433;-69
2022/10/14 01:55:32;;;;;;;11.13;5.07;;;;;;;10.68;nan;94097.47;4932141;29;20745;-70
2022/10/14 01:58:00;;;;;;;10.40;5.00;;;;;;;10.64;nan;94099.50;4916141;29;20065;-71
2022/10/14 02:00:27;;;;;;;9.23;5.40;;;;;;;10.55;nan;94089.78;4915929;29;20050;-71
2022/10/14 02:02:54;;;;;;;9.30;5.13;;;;;;;10.54;nan;94096.50;4932736;29;20069;-69
2022/10/14 02:05:26;;;;;;;10.00;4.72;;;;;;;10.65;nan;94096.34;4931545;29;20705;-70
2022/10/14 02:08:09;;;;;;;11.63;6.20;;;;;;;10.59;nan;94090.53;4932735;29;20070;-70
2022/10/14 02:10:53;;;;;;;11.30;4.90;;;;;;;10.62;nan;94099.91;4923029;29;20426;-70
2022/10/14 02:13:39;;;;;;;9.50;4.97;;;;;;;10.66;nan;94091.63;4931440;29;20704;-70
2022/10/14 02:16:21;;;;;;;9.45;5.05;;;;;;;10.63;nan;94092.47;4932263;29;20044;-70
2022/10/14 02:19:01;;;;;;;11.00;5.20;;;;;;;10.65;nan;94085.38;4932555;29;20047;-69
2022/10/14 02:21:38;;;;;;;10.47;4.90;;;;;;;10.64;nan;94089.28;4931366;29;20809;-69
2022/10/14 02:24:11;;;;;;;8.38;4.78;;;;;;;10.71;nan;94096.66;4932020;29;20050;-69
2022/10/14 02:26:39;;;;;;;8.68;4.10;;;;;;;10.66;nan;94092.41;4932583;29;20043;-70
2022/10/14 02:29:06;;;;;;;7.70;4.30;;;;;;;10.66;nan;94086.91;4931991;29;20061;-69
2022/10/14 02:31:36;;;;;;;9.52;4.60;;;;;;;10.69;nan;94071.59;4932139;29;20704;-70
2022/10/14 02:34:09;;;;;;;10.60;4.60;;;;;;;10.71;nan;94071.97;4931948;29;20040;-70
2022/10/14 02:36:36;;;;;;;10.98;5.20;;;;;;;10.46;nan;94073.03;4932456;29;20050;-69
2022/10/14 02:39:06;;;;;;;11.30;5.35;;;;;;;10.41;nan;94062.53;4914803;29;20044;-69
2022/10/14 02:41:36;;;;;;;10.85;5.47;;;;;;;10.46;nan;94061.28;4932284;29;20055;-69
2022/10/14 02:44:06;;;;;;;11.23;5.50;;;;;;;10.48;nan;94058.91;4931747;29;20052;-69
2022/10/14 02:46:34;;;;;;;11.43;5.60;;;;;;;10.57;nan;94054.47;4932145;29;20052;-70
2022/10/14 02:49:01;;;;;;;11.88;5.90;;;;;;;10.51;nan;94052.63;4931882;29;20489;-70
2022/10/14 02:51:27;;;;;;;10.77;5.53;;;;;;;10.54;nan;94054.53;4917105;29;20048;-69
2022/10/14 02:53:56;;;;;;;11.75;5.20;;;;;;;10.51;nan;94056.13;4931933;29;20046;-69
2022/10/14 02:56:23;;;;;;;11.07;4.78;;;;;;;10.51;nan;94056.13;4931734;29;21792;-69
2022/10/14 02:58:50;;;;;;;8.83;4.20;;;;;;;10.49;nan;94057.75;4935937;29;20051;-70
2022/10/14 03:01:16;;;;;;;10.57;4.85;;;;;;;10.33;nan;94056.34;4935310;29;20043;-70
2022/10/14 03:03:43;;;;;;;7.72;4.40;;;;;;;10.37;nan;94062.56;4935867;29;20036;-70
2022/10/14 03:06:10;;;;;;;9.68;4.50;;;;;;;10.41;nan;94048.06;4934891;29;20048;-69
2022/10/14 03:08:37;;;;;;;9.20;4.50;;;;;;;10.39;nan;94051.97;4935690;29;20043;-69
2022/10/14 03:11:04;;;;;;;8.93;4.90;;;;;;;10.39;nan;94042.97;4935056;29;20043;-71
2022/10/14 03:13:30;;;;;;;11.25;4.90;;;;;;;10.45;nan;94049.56;4935694;29;20098;-70
2022/10/14 03:15:58;;;;;;;9.52;5.10;;;;;;;10.44;nan;94042.50;4935313;29;20044;-71
2022/10/14 03:18:25;;;;;;;11.15;5.47;;;;;;;10.43;nan;94042.94;4919035;29;20044;-69
2022/10/14 03:20:51;;;;;;;9.50;4.93;;;;;;;10.47;nan;94038.94;4935779;29;20052;-69
2022/10/14 03:23:18;;;;;;;11.03;5.20;;;;;;;10.46;nan;94029.13;4935033;29;20048;-70
2022/10/14 03:25:45;;;;;;;10.32;5.28;;;;;;;10.57;nan;94029.78;4935415;29;20382;-70
2022/10/14 03:28:12;;;;;;;11.55;6.20;;;;;;;10.59;nan;94032.91;4934787;29;20058;-69
2022/10/14 03:30:39;;;;;;;11.00;5.85;;;;;;;10.60;nan;94022.69;4935440;29;20056;-70
2022/10/14 03:33:06;;;;;;;13.35;6.45;;;;;;;10.55;nan;94028.66;4934919;29;20052;-69
2022/10/14 03:35:34;;;;;;;13.13;5.90;;;;;;;10.53;nan;94031.81;4935406;29;20054;-70
2022/10/14 03:38:02;;;;;;;13.70;6.40;;;;;;;10.47;nan;94021.72;4934970;29;20048;-69
2022/10/14 03:40:29;;;;;;;15.77;6.68;;;;;;;10.43;nan;94020.97;4935261;29;20058;-69
2022/10/14 03:43:00;;;;;;;13.05;6.75;;;;;;;10.41;nan;94012.38;4934545;29;20056;-69
2022/10/14 03:45:27;;;;;;;16.48;7.45;;;;;;;10.50;nan;94015.38;4935393;29;20497;-69
2022/10/14 03:47:54;;;;;;;16.97;7.67;;;;;;;10.41;nan;94018.63;4935187;29;20128;-69
2022/10/14 03:50:21;;;;;;;17.27;7.65;;;;;;;10.44;nan;94008.81;4934184;29;20808;-69
2022/10/14 03:52:48;;;;;;;15.38;7.65;;;;;;;10.52;nan;94010.25;4934498;29;20051;-70
2022/10/14 03:55:20;;;;;;;14.55;7.57;;;;;;;10.57;nan;94007.06;4933989;29;20054;-69
2022/10/14 03:57:47;;;;;;;18.60;8.20;;;;;;;10.36;nan;94010.84;4935151;29;20062;-69
2022/10/14 04:00:14;;;;;;;19.37;8.43;;;;;;;10.49;nan;94008.34;4934268;29;20048;-70
2022/10/14 04:02:42;;;;;;;17.95;8.05;;;;;;;10.52;nan;94002.03;4934761;29;20051;-70
2022/10/14 04:05:09;;;;;;;16.17;7.82;;;;;;;10.63;nan;94005.41;4934161;29;20485;-71
2022/10/14 04:07:36;;;;;;;19.60;8.18;;;;;;;10.61;nan;94002.31;4934335;29;20044;-69
2022/10/14 04:10:03;;;;;;;17.83;8.75;;;;;;;10.63;nan;94002.66;4933760;29;20047;-69
2022/10/14 04:12:30;;;;;;;21.27;9.47;;;;;;;10.64;nan;94006.19;4934431;29;20050;-69
2022/10/14 04:14:57;;;;;;;17.30;8.70;;;;;;;10.57;nan;93996.84;4934189;29;20043;-69
2022/10/14 04:17:24;;;;;;;18.27;9.18;;;;;;;10.58;nan;93992.94;4934411;29;20048;-69
2022/10/14 04:19:52;;;;;;;17.27;8.20;;;;;;;10.65;nan;93999.50;4934421;29;20048;-70
2022/10/14 04:22:19;;;;;;;18.17;9.27;;;;;;;10.54;nan;93991.41;4933869;29;20053;-69
2022/10/14 04:24:46;;;;;;;16.17;8.60;;;;;;;10.54;nan;93996.91;4934481;29;20062;-69
2022/10/14 04:27:13;;;;;;;17.95;8.82;;;;;;;10.56;nan;93995.31;4933812;29;20052;-69
2022/10/14 04:29:40;;;;;;;16.95;8.38;;;;;;;10.57;nan;93990.59;4934449;29;20066;-69
2022/10/14 04:32:07;;;;;;;19.92;8.30;;;;;;;10.67;nan;93989.66;4933817;29;20056;-69
2022/10/14 04:34:34;;;;;;;15.45;8.07;;;;;;;10.51;nan;93995.00;4934113;29;20054;-70
2022/10/14 04:37:00;;;;;;;18.87;8.03;;;;;;;10.63;nan;93983.47;4933898;29;20047;-69
2022/10/14 04:39:27;;;;;;;39.65;20.95;;;;;;;10.70;nan;93986.06;4934337;29;20047;-69
2022/10/14 04:41:54;;;;;;;21.67;10.45;;;;;;;10.75;nan;93991.13;4917490;29;20046;-69
2022/10/14 04:44:21;;;;;;;17.85;9.18;;;;;;;10.68;nan;93985.72;4932986;29;20787;-69
2022/10/14 04:46:48;;;;;;;19.00;9.18;;;;;;;10.69;nan;93981.78;4934173;29;20594;-69
2022/10/14 04:49:15;;;;;;;18.10;9.30;;;;;;;10.78;nan;93986.75;4933562;29;20058;-69
2022/10/14 04:51:42;;;;;;;16.85;8.30;;;;;;;10.84;nan;93984.31;4933702;29;20731;-69
2022/10/14 04:54:09;;;;;;;21.65;11.63;;;;;;;10.87;nan;93981.53;4933249;29;20040;-70
2022/10/14 04:56:36;;;;;;;15.27;8.50;;;;;;;10.86;nan;93976.44;4934043;29;20050;-68
2022/10/14 04:59:04;;;;;;;19.88;8.70;;;;;;;10.76;nan;93981.69;4916681;29;20472;-69
2022/10/14 05:01:31;;;;;;;19.07;9.83;;;;;;;10.67;nan;93961.44;4933598;29;20089;-68
2022/10/14 05:03:59;;;;;;;24.30;10.00;;;;;;;10.65;nan;93966.56;4932564;29;20082;-68
2022/10/14 05:06:26;;;;;;;22.60;10.73;;;;;;;10.57;nan;93961.19;4933585;29;20052;-69
2022/10/14 05:08:53;;;;;;;20.63;10.35;;;;;;;10.66;nan;93949.69;4933469;29;20046;-69
2022/10/14 05:11:20;;;;;;;19.00;10.30;;;;;;;10.75;nan;93955.44;4915915;29;20417;-69
2022/10/14 05:13:47;;;;;;;19.93;9.73;;;;;;;10.85;nan;93955.69;4916597;29;20044;-68
2022/10/14 05:16:14;;;;;;;24.45;13.70;;;;;;;10.80;nan;93956.91;4932442;29;20490;-68
2022/10/14 05:18:41;;;;;;;27.65;13.65;;;;;;;10.82;nan;93953.75;4933161;29;20066;-68
2022/10/14 05:21:07;;;;;;;27.73;12.75;;;;;;;10.76;nan;93951.47;4932197;29;20054;-69
2022/10/14 05:23:34;;;;;;;22.88;11.55;;;;;;;10.73;nan;93938.59;4932692;29;20047;-69
2022/10/14 05:26:01;;;;;;;23.43;10.73;;;;;;;10.79;nan;93928.69;4932295;29;20036;-68
2022/10/14 05:28:28;;;;;;;25.17;12.30;;;;;;;10.79;nan;93938.91;4933052;29;20044;-67
2022/10/14 05:30:55;;;;;;;26.75;13.75;;;;;;;10.80;nan;93943.19;4933360;29;20054;-68
2022/10/14 05:33:22;;;;;;;47.00;20.83;;;;;;;10.76;nan;93939.72;4930161;29;21667;-69
2022/10/14 05:35:49;;;;;;;37.13;18.42;;;;;;;10.84;nan;93932.16;4933122;29;20043;-70
2022/10/14 05:38:25;;;;;;;28.20;13.00;;;;;;;10.83;nan;93933.38;4932047;29;21580;-69
2022/10/14 05:40:54;;;;;;;21.85;10.93;;;;;;;10.84;nan;93926.66;4933430;29;20043;-69
2022/10/14 05:43:21;;;;;;;21.33;10.43;;;;;;;10.85;nan;93923.50;4932586;29;20868;-70
2022/10/14 05:45:49;;;;;;;19.80;9.68;;;;;;;10.95;nan;93927.28;4933494;29;20046;-69
2022/10/14 05:48:17;;;;;;;19.67;9.50;;;;;;;11.02;nan;93929.13;4933138;29;20050;-70
2022/10/14 05:50:43;;;;;;;18.83;9.87;;;;;;;10.92;nan;93914.38;4933301;29;20040;-68
2022/10/14 05:53:10;;;;;;;21.17;9.20;;;;;;;10.96;nan;93915.09;4932575;29;20053;-69
2022/10/14 05:55:37;;;;;;;22.10;10.35;;;;;;;11.01;nan;93914.63;4933060;29;20043;-69
2022/10/14 05:58:04;;;;;;;22.27;10.10;;;;;;;11.02;nan;93912.66;4932605;29;20057;-69
2022/10/14 06:00:31;;;;;;;21.20;10.07;;;;;;;10.95;nan;93913.56;4916045;29;20044;-69
2022/10/14 06:02:57;;;;;;;23.27;10.80;;;;;;;10.96;nan;93915.88;4915751;29;20501;-69
2022/10/14 06:05:24;;;;;;;24.67;11.07;;;;;;;11.01;nan;93917.38;4932681;29;20054;-69
2022/10/14 06:07:51;;;;;;;25.42;11.40;;;;;;;10.96;nan;93918.59;4932883;29;20048;-68
2022/10/14 06:10:18;;;;;;;23.67;11.00;;;;;;;10.94;nan;93917.47;4932455;29;20532;-70
2022/10/14 06:12:45;;;;;;;25.85;11.48;;;;;;;10.92;nan;93917.88;4932607;29;20390;-69
2022/10/14 06:15:12;;;;;;;25.13;11.40;;;;;;;10.91;nan;93919.09;4932549;29;20043;-69
2022/10/14 06:17:38;;;;;;;27.27;11.25;;;;;;;10.89;nan;93916.00;4932819;29;20481;-69
2022/10/14 06:20:06;;;;;;;24.75;11.05;;;;;;;10.91;nan;93924.59;4932131;29;20042;-68
2022/10/14 06:22:32;;;;;;;25.10;11.10;;;;;;;11.01;nan;93928.34;4915489;29;20082;-69
2022/10/14 06:24:59;;;;;;;24.35;10.75;;;;;;;11.12;nan;93922.69;4931694;29;20051;-69
2022/10/14 06:27:30;;;;;;;23.43;10.83;;;;;;;11.14;nan;93925.78;4916253;29;20047;-69
2022/10/14 06:29:56;;;;;;;25.27;11.75;;;;;;;11.06;nan;93918.84;4932047;29;20047;-69
2022/10/14 06:32:23;;;;;;;23.08;11.05;;;;;;;11.18;nan;93921.75;4931673;29;20044;-69
2022/10/14 06:34:50;;;;;;;23.75;10.90;;;;;;;11.12;nan;93920.69;4932561;29;20048;-69
2022/10/14 06:37:17;;;;;;;24.83;11.45;;;;;;;11.07;nan;93921.19;4932111;29;20046;-69
2022/10/14 06:39:44;;;;;;;26.80;11.23;;;;;;;11.06;nan;93925.13;4932662;29;20046;-69
2022/10/14 06:42:10;;;;;;;26.33;11.73;;;;;;;11.06;nan;93916.88;4931920;29;20062;-70
2022/10/14 06:44:38;;;;;;;27.33;11.90;;;;;;;11.07;nan;93923.94;4932349;29;20069;-69
2022/10/14 06:47:06;;;;;;;28.45;11.57;;;;;;;11.10;nan;93925.06;4931966;29;20073;-71
2022/10/14 06:49:33;;;;;;;27.50;12.38;;;;;;;11.08;nan;93917.25;4932176;29;20505;-69
2022/10/14 06:52:01;;;;;;;28.13;11.70;;;;;;;11.20;nan;93921.34;4914667;29;20039;-69
2022/10/14 06:54:27;;;;;;;27.88;11.85;;;;;;;11.24;nan;93926.78;4932350;29;20050;-69
2022/10/14 06:56:54;;;;;;;27.15;11.68;;;;;;;11.22;nan;93921.72;4915321;29;20036;-69
2022/10/14 06:59:21;;;;;;;24.88;11.00;;;;;;;11.24;nan;93927.56;4931456;29;20924;-70
2022/10/14 07:01:48;;;;;;;26.33;11.20;;;;;;;11.15;nan;93927.34;4932021;29;20511;-69
2022/10/14 07:04:15;;;;;;;26.90;11.27;;;;;;;11.23;nan;93928.78;4931903;29;20036;-69
2022/10/14 07:06:41;;;;;;;23.70;11.23;;;;;;;11.31;nan;93932.16;4931921;29;20052;-70
2022/10/14 07:09:08;;;;;;;24.58;11.10;;;;;;;11.40;nan;93927.66;4931757;29;20040;-69
2022/10/14 07:11:35;;;;;;;26.58;11.18;;;;;;;11.27;nan;93934.97;4932234;29;20044;-70
2022/10/14 07:14:02;;;;;;;24.00;11.27;;;;;;;11.53;nan;93930.59;4914654;29;20040;-70
2022/10/14 07:16:29;;;;;;;20.73;10.30;;;;;;;11.45;nan;93934.66;4931794;29;20089;-71
2022/10/14 07:18:56;;;;;;;20.95;9.80;;;;;;;11.61;nan;93936.72;4931539;29;20052;-67
2022/10/14 07:21:22;;;;;;;21.00;10.40;;;;;;;11.76;nan;93937.22;4932068;29;20043;-69
2022/10/14 07:23:49;;;;;;;19.95;10.25;;;;;;;11.86;nan;93933.47;4932074;29;20400;-70
2022/10/14 07:26:16;;;;;;;20.08;10.05;;;;;;;11.95;nan;93939.22;4931589;29;20054;-70
2022/10/14 07:28:43;;;;;;;18.93;9.67;;;;;;;11.85;nan;93931.94;4931987;29;20054;-70
2022/10/14 07:31:10;;;;;;;19.13;9.55;;;;;;;11.78;nan;93937.56;4931605;29;20043;-70
2022/10/14 07:33:39;;;;;;;18.20;9.82;;;;;;;11.84;nan;93933.13;4931789;29;20047;-70
2022/10/14 07:36:11;;;;;;;19.58;9.65;;;;;;;11.72;nan;93936.50;4914421;29;20054;-70
2022/10/14 07:38:39;;;;;;;20.20;9.77;;;;;;;11.66;nan;93932.69;4932030;29;20048;-70
2022/10/14 07:41:15;;;;;;;24.10;13.33;;;;;;;11.86;nan;93938.97;4931480;29;20050;-69
2022/10/14 07:43:53;;;;;;;18.95;9.68;;;;;;;11.72;nan;93940.03;4933152;29;20416;-70
2022/10/14 07:46:30;;;;;;;16.65;8.35;;;;;;;11.83;nan;93934.34;4934551;29;20050;-70
2022/10/14 07:49:11;;;;;;;17.58;9.40;;;;;;;11.88;nan;93936.56;4934943;29;20043;-70
2022/10/14 07:51:38;;;;;;;17.15;8.90;;;;;;;11.78;nan;93946.59;4935119;29;20159;-70
2022/10/14 07:54:08;;;;;;;17.20;8.50;;;;;;;11.89;nan;93938.16;4934335;29;20114;-70
2022/10/14 07:56:37;;;;;;;16.35;8.90;;;;;;;12.02;nan;93934.78;4935232;29;20056;-70
2022/10/14 07:59:04;;;;;;;16.70;9.38;;;;;;;12.03;nan;93941.81;4934664;29;20434;-70
2022/10/14 08:01:31;;;;;;;33.15;16.92;;;;;;;12.11;nan;93941.25;4934976;29;20050;-71
2022/10/14 08:03:58;;;;;;;22.67;12.30;;;;;;;12.32;nan;93939.25;4934613;29;20043;-69
2022/10/14 08:06:25;;;;;;;19.93;9.47;;;;;;;12.43;nan;93941.75;4935176;29;20058;-70
2022/10/14 08:08:52;;;;;;;16.23;8.35;;;;;;;12.50;nan;93941.63;4935067;29;20063;-70
2022/10/14 08:11:25;;;;;;;15.73;8.13;;;;;;;12.48;nan;93938.53;4934512;29;20519;-69
2022/10/14 08:13:53;;;;;;;15.65;8.40;;;;;;;12.58;nan;93948.50;4934982;29;20054;-70
2022/10/14 08:16:23;;;;;;;14.20;7.85;;;;;;;12.66;nan;93938.13;4934579;29;20055;-70
2022/10/14 08:18:51;;;;;;;14.57;7.93;;;;;;;12.78;nan;93938.22;4935183;29;20044;-70
2022/10/14 08:21:19;;;;;;;14.25;8.32;;;;;;;12.85;nan;93928.22;4934196;29;21145;-70
2022/10/14 08:23:46;;;;;;;18.17;9.60;;;;;;;13.14;nan;93934.59;4934776;29;20504;-70
2022/10/14 08:26:19;;;;;;;15.02;8.50;;;;;;;13.33;nan;93927.44;4934475;29;20058;-70
2022/10/14 08:28:47;;;;;;;16.33;8.23;;;;;;;13.39;nan;93930.47;4934723;29;20043;-70
2022/10/14 08:31:15;;;;;;;12.97;7.07;;;;;;;13.43;nan;93924.84;4934262;29;20530;-70
2022/10/14 08:33:42;;;;;;;12.70;6.72;;;;;;;13.20;nan;93926.59;4934397;29;20043;-70
2022/10/14 08:36:08;;;;;;;14.80;7.10;;;;;;;13.55;nan;93933.19;4934174;29;20046;-70
2022/10/14 08:38:35;;;;;;;11.70;6.97;;;;;;;13.45;nan;93928.72;4934686;29;20058;-70
2022/10/14 08:41:05;;;;;;;11.40;6.70;;;;;;;13.30;nan;93924.78;4933922;29;20056;-70
2022/10/14 08:43:40;;;;;;;14.20;7.70;;;;;;;13.30;nan;93930.28;4934511;29;20398;-70
2022/10/14 08:46:26;;;;;;;13.05;6.93;;;;;;;13.25;nan;93930.78;4934010;29;20048;-69
2022/10/14 08:49:02;;;;;;;11.02;6.40;;;;;;;13.05;nan;93934.41;4934513;29;20044;-69
2022/10/14 08:51:31;;;;;;;11.68;6.38;;;;;;;13.17;nan;93933.72;4933443;29;22151;-69
2022/10/14 08:54:05;;;;;;;10.48;5.53;;;;;;;13.32;nan;93933.38;4933331;29;20082;-69
2022/10/14 08:56:35;;;;;;;9.30;4.97;;;;;;;13.25;nan;93931.56;4934131;29;20481;-70
2022/10/14 08:59:21;;;;;;;10.82;5.40;;;;;;;13.40;nan;93937.53;4933831;29;20051;-70
2022/10/14 09:01:52;;;;;;;14.60;7.68;;;;;;;13.18;nan;93934.53;4917102;29;20051;-71
2022/10/14 09:04:20;;;;;;;12.75;7.35;;;;;;;12.94;nan;93931.94;4933685;29;20048;-70
2022/10/14 09:06:49;;;;;;;10.93;5.90;;;;;;;13.06;nan;93933.22;4933950;29;20040;-70
2022/10/14 09:09:25;;;;;;;8.63;4.77;;;;;;;12.99;nan;93930.63;4916505;29;20063;-71
2022/10/14 09:12:10;;;;;;;9.18;3.90;;;;;;;13.03;nan;93933.31;4934066;29;20040;-71
2022/10/14 09:14:46;;;;;;;9.38;4.10;;;;;;;13.24;nan;93929.22;4933228;29;20715;-70
2022/10/14 09:17:25;;;;;;;7.55;4.70;;;;;;;13.52;nan;93930.50;4933515;29;20049;-69
2022/10/14 09:20:07;;;;;;;16.48;11.10;;;;;;;13.13;nan;93924.78;4934013;29;20053;-70
2022/10/14 09:22:34;;;;;;;12.53;7.50;;;;;;;12.73;nan;93924.16;4932852;29;20784;-69
2022/10/14 09:25:01;;;;;;;10.02;5.50;;;;;;;12.48;nan;93925.53;4933156;29;20043;-68
2022/10/14 09:27:28;;;;;;;10.20;5.05;;;;;;;12.43;nan;93928.00;4933624;29;20051;-68
2022/10/14 09:30:00;;;;;;;9.60;5.20;;;;;;;12.51;nan;93930.16;4933351;29;20050;-71
2022/10/14 09:32:32;;;;;;;10.35;6.03;;;;;;;12.51;nan;93929.38;4932861;29;20891;-70
2022/10/14 09:34:59;;;;;;;10.50;6.33;;;;;;;12.42;nan;93932.75;4933340;29;20053;-69
2022/10/14 09:37:28;;;;;;;10.32;6.32;;;;;;;12.32;nan;93923.50;4933416;29;20348;-70
2022/10/14 09:39:58;;;;;;;11.13;6.50;;;;;;;12.32;nan;93923.50;4933032;29;20050;-67
2022/10/14 09:42:35;;;;;;;11.18;6.72;;;;;;;12.44;nan;93924.84;4933360;29;20044;-69
2022/10/14 09:45:09;;;;;;;13.70;6.68;;;;;;;12.62;nan;93915.41;4932776;29;20039;-69
2022/10/14 09:47:47;;;;;;;12.30;6.43;;;;;;;12.60;nan;93924.09;4933058;29;20052;-70
2022/10/14 09:50:21;;;;;;;14.00;6.60;;;;;;;12.44;nan;93921.31;4932682;29;20047;-70
2022/10/14 09:52:53;;;;;;;13.88;7.30;;;;;;;12.51;nan;93921.13;4932823;29;20048;-70
2022/10/14 09:55:23;;;;;;;11.05;6.20;;;;;;;12.51;nan;93919.16;4932770;29;20059;-69
2022/10/14 09:58:13;;;;;;;18.48;8.98;;;;;;;12.37;nan;93913.97;4932969;29;20048;-70
2022/10/14 10:00:40;;;;;;;14.57;7.97;;;;;;;12.46;nan;93916.16;4932078;29;20331;-69
2022/10/14 10:03:07;;;;;;;14.45;7.72;;;;;;;12.49;nan;93910.53;4932112;29;20039;-69
2022/10/14 10:05:35;;;;;;;12.20;6.78;;;;;;;12.28;nan;93911.03;4932086;29;20098;-69
2022/10/14 10:08:17;;;;;;;9.90;5.80;;;;;;;12.37;nan;93911.22;4931719;29;20043;-70
2022/10/14 10:11:09;;;;;;;10.85;5.78;;;;;;;12.51;nan;93913.66;4932703;29;20050;-68
2022/10/14 10:13:45;;;;;;;7.80;4.60;;;;;;;12.36;nan;93912.44;4931613;29;20856;-70
2022/10/14 10:16:17;;;;;;;8.10;4.65;;;;;;;12.25;nan;93904.41;4932225;29;20498;-69
2022/10/14 10:18:46;;;;;;;7.88;5.03;;;;;;;12.31;nan;93907.41;4932680;29;20086;-69
2022/10/14 10:21:23;;;;;;;8.73;4.40;;;;;;;12.37;nan;93908.47;4932087;29;20409;-69
2022/10/14 10:23:57;;;;;;;7.82;4.45;;;;;;;12.44;nan;93905.56;4932865;29;20062;-69
2022/10/14 10:26:32;;;;;;;7.07;4.00;;;;;;;12.40;nan;93907.63;4931715;29;20840;-70
2022/10/14 10:29:02;;;;;;;6.57;3.70;;;;;;;12.26;nan;93902.44;4932126;29;20086;-70
2022/10/14 10:31:43;;;;;;;7.38;4.07;;;;;;;12.17;nan;93901.03;4932718;29;20418;-70
2022/10/14 10:34:25;;;;;;;8.32;4.10;;;;;;;12.34;nan;93896.34;4932023;29;20409;-69
2022/10/14 10:37:03;;;;;;;9.05;4.57;;;;;;;12.42;nan;93885.19;4932412;29;20047;-70
2022/10/14 10:39:39;;;;;;;8.33;4.47;;;;;;;12.44;nan;93889.06;4931637;29;20069;-69
2022/10/14 10:42:47;;;;;;;7.55;4.68;;;;;;;12.57;nan;93889.91;4931961;29;20050;-69
2022/10/14 10:45:57;;;;;;;7.93;4.15;;;;;;;12.66;nan;93891.31;4890306;29;20043;-69
2022/10/14 10:48:33;;;;;;;8.05;4.13;;;;;;;12.61;nan;93878.81;4853417;29;20057;-70
2022/10/14 10:51:09;;;;;;;10.95;4.47;;;;;;;12.64;nan;93882.72;4854046;29;20058;-69
2022/10/14 10:53:39;;;;;;;7.43;3.97;;;;;;;12.79;nan;93875.63;4901646;29;20065;-70
2022/10/14 10:56:14;;;;;;;9.52;4.57;;;;;;;12.66;nan;93874.78;4931622;29;20047;-69
2022/10/14 10:58:56;;;;;;;9.27;5.82;;;;;;;12.77;nan;93867.03;4932090;29;20052;-70
2022/10/14 11:01:46;;;;;;;13.02;6.53;;;;;;;12.68;nan;93864.91;4931260;29;21691;-70
2022/10/14 11:04:36;;;;;;;9.50;5.85;;;;;;;12.83;nan;93859.03;4920269;29;20059;-69
2022/10/14 11:13:34;;;;;;;12.02;6.50;;;;;;;12.96;nan;93857.13;4931621;29;20523;-69
2022/10/14 11:16:25;;;;;;;10.32;5.90;;;;;;;12.90;nan;93854.13;4931627;29;20044;-70
2022/10/14 11:19:01;;;;;;;10.93;6.18;;;;;;;12.89;nan;93844.31;4935317;29;20043;-70
2022/10/14 11:21:34;;;;;;;8.17;5.13;;;;;;;12.76;nan;93851.72;4935017;29;20235;-69
2022/10/14 11:24:07;;;;;;;9.00;5.30;;;;;;;12.94;nan;93834.75;4935316;29;20062;-68
2022/10/14 11:27:04;;;;;;;8.27;5.05;;;;;;;12.83;nan;93834.25;4935909;29;20493;-69
2022/10/14 11:29:47;;;;;;;9.02;5.20;;;;;;;12.85;nan;93829.84;4934810;29;20842;-70
2022/10/14 11:32:17;;;;;;;9.75;5.78;;;;;;;13.18;nan;93827.06;4935329;29;20048;-69
2022/10/14 11:35:04;;;;;;;7.27;4.80;;;;;;;13.40;nan;93832.78;4935495;29;20062;-70
2022/10/14 11:37:43;;;;;;;8.77;4.85;;;;;;;13.45;nan;93821.22;4921755;29;21566;-70
2022/10/14 11:40:49;;;;;;;9.25;5.20;;;;;;;13.14;nan;93827.13;4935134;29;20396;-69
2022/10/14 11:43:47;;;;;;;6.97;4.50;;;;;;;13.12;nan;93815.78;4931634;29;20055;-70
2022/10/14 11:46:20;;;;;;;7.63;4.50;;;;;;;13.23;nan;93826.50;4934659;29;20070;-69
2022/10/14 11:48:52;;;;;;;9.63;4.50;;;;;;;13.34;nan;93815.22;4935446;29;20044;-68
2022/10/14 11:51:41;;;;;;;9.43;4.82;;;;;;;13.10;nan;93814.66;4934760;29;20051;-69
2022/10/14 11:54:23;;;;;;;8.77;4.50;;;;;;;13.37;nan;93817.88;4934777;29;20043;-69
2022/10/14 11:57:03;;;;;;;10.43;4.03;;;;;;;13.39;nan;93820.97;4935473;29;20052;-68
2022/10/14 11:59:36;;;;;;;7.43;4.20;;;;;;;13.49;nan;93813.63;4934507;29;20871;-71
2022/10/14 12:02:19;;;;;;;7.83;3.80;;;;;;;13.38;nan;93808.41;4934348;29;20058;-70
2022/10/14 12:04:55;;;;;;;6.95;3.70;;;;;;;13.45;nan;93812.19;4918213;29;20043;-70
2022/10/14 12:07:43;;;;;;;7.80;4.03;;;;;;;13.32;nan;93815.66;4933828;29;20497;-70
2022/10/14 12:10:18;;;;;;;8.77;4.45;;;;;;;13.26;nan;93813.84;4934427;29;20044;-70